createdAt,value
2019-05-19T00:02:09.328Z,83.10
2019-05-19T00:04:37.740Z,84.33
2019-05-19T00:07:06.181Z,77.57
2019-05-19T00:09:34.599Z,81.97
2019-05-19T00:12:03.090Z,85.40
2019-05-19T00:14:31.519Z,83.90
2019-05-19T00:16:59.944Z,81.73
2019-05-19T00:19:28.375Z,82.90
2019-05-19T00:21:56.787Z,91.37
2019-05-19T00:24:25.228Z,116.80
2019-05-19T00:26:53.649Z,78.43
2019-05-19T00:29:22.098Z,84.50
2019-05-19T00:31:50.518Z,75.63
2019-05-19T00:34:18.957Z,73.40
2019-05-19T00:36:47.366Z,73.10
2019-05-19T00:39:15.818Z,75.37
2019-05-19T00:41:44.293Z,73.73
2019-05-19T00:44:12.732Z,75.37
2019-05-19T00:46:41.148Z,80.20
2019-05-19T00:49:09.582Z,82.33
2019-05-19T00:51:38.471Z,76.63
2019-05-19T00:54:06.908Z,68.47
2019-05-19T00:56:35.311Z,72.67
2019-05-19T00:59:04.502Z,70.97
2019-05-19T01:01:32.972Z,73.63
2019-05-19T01:04:01.415Z,65.73
2019-05-19T01:06:29.902Z,73.30
2019-05-19T01:08:58.343Z,72.10
2019-05-19T01:11:26.754Z,74.43
2019-05-19T01:13:55.226Z,78.23
2019-05-19T01:16:23.638Z,73.30
2019-05-19T01:18:52.081Z,73.03
2019-05-19T01:21:20.965Z,73.97
2019-05-19T01:23:49.407Z,79.07
2019-05-19T01:26:17.816Z,73.93
2019-05-19T01:28:46.276Z,77.20
2019-05-19T01:31:14.692Z,77.17
2019-05-19T01:33:43.112Z,77.03
2019-05-19T01:36:11.548Z,101.80
2019-05-19T01:38:39.971Z,233.93
2019-05-19T01:41:08.418Z,291.03
2019-05-19T01:43:36.836Z,165.77
2019-05-19T01:46:05.280Z,122.23
2019-05-19T01:48:33.717Z,189.60
2019-05-19T01:51:02.163Z,122.10
2019-05-19T01:53:30.576Z,87.60
2019-05-19T01:55:59.017Z,87.00
2019-05-19T01:58:27.458Z,87.17
2019-05-19T02:00:55.870Z,80.20
2019-05-19T02:03:24.283Z,81.87
2019-05-19T02:05:52.729Z,80.60
2019-05-19T02:08:21.142Z,84.07
2019-05-19T02:10:49.583Z,81.80
2019-05-19T02:13:17.992Z,78.37
2019-05-19T02:15:46.429Z,74.80
2019-05-19T02:18:14.978Z,88.10
2019-05-19T02:20:45.059Z,83.50
2019-05-19T02:23:13.463Z,84.83
2019-05-19T02:25:41.913Z,75.43
2019-05-19T02:28:10.331Z,73.57
2019-05-19T02:30:38.841Z,73.83
2019-05-19T02:33:07.262Z,69.70
2019-05-19T02:35:35.699Z,80.73
2019-05-19T02:38:04.184Z,96.30
2019-05-19T02:40:33.944Z,86.80
2019-05-19T02:43:02.484Z,85.80
2019-05-19T02:45:32.567Z,74.30
2019-05-19T02:48:02.541Z,77.63
2019-05-19T02:50:50.519Z,73.60
2019-05-19T02:53:03.760Z,123.30
2019-05-19T02:55:33.043Z,138.50
2019-05-19T02:58:02.355Z,154.53
2019-05-19T03:00:35.984Z,103.47
2019-05-19T03:03:04.573Z,157.63
2019-05-19T03:05:32.989Z,129.80
2019-05-19T03:08:01.433Z,80.60
2019-05-19T03:10:29.880Z,73.40
2019-05-19T03:12:58.372Z,81.67
2019-05-19T03:15:26.861Z,105.23
2019-05-19T03:17:55.317Z,102.83
2019-05-19T03:20:23.723Z,89.13
2019-05-19T03:22:52.169Z,115.80
2019-05-19T03:25:20.569Z,75.40
2019-05-19T03:27:49.014Z,146.30
2019-05-19T03:30:35.583Z,85.73
2019-05-19T03:33:17.487Z,142.60
2019-05-19T03:35:45.901Z,73.80
2019-05-19T03:38:14.336Z,74.80
2019-05-19T03:40:42.754Z,65.97
2019-05-19T03:43:11.193Z,82.43
2019-05-19T03:45:39.702Z,72.37
2019-05-19T03:48:08.117Z,71.43
2019-05-19T03:50:36.553Z,76.80
2019-05-19T03:53:04.965Z,83.47
2019-05-19T03:55:33.384Z,93.40
2019-05-19T03:58:01.839Z,86.20
2019-05-19T04:00:30.316Z,75.10
2019-05-19T04:02:58.752Z,75.43
2019-05-19T04:05:27.255Z,81.10
2019-05-19T04:07:55.682Z,83.87
2019-05-19T04:10:24.242Z,79.30
2019-05-19T04:12:52.696Z,77.70
2019-05-19T04:15:21.087Z,79.90
2019-05-19T04:17:49.528Z,79.03
2019-05-19T04:20:18.106Z,74.87
2019-05-19T04:22:46.562Z,72.20
2019-05-19T04:25:15.039Z,75.80
2019-05-19T04:27:43.460Z,76.20
2019-05-19T04:30:12.143Z,74.40
2019-05-19T04:32:40.554Z,69.90
2019-05-19T04:35:09.469Z,71.43
2019-05-19T04:37:37.879Z,68.37
2019-05-19T04:40:07.450Z,69.73
2019-05-19T04:42:35.930Z,71.37
2019-05-19T04:45:04.696Z,70.10
2019-05-19T04:47:33.106Z,68.67
2019-05-19T04:50:01.553Z,71.00
2019-05-19T04:52:29.973Z,68.50
2019-05-19T04:54:58.415Z,67.13
2019-05-19T04:57:26.827Z,71.63
2019-05-19T04:59:55.278Z,69.10
2019-05-19T05:02:23.692Z,70.53
2019-05-19T05:04:52.135Z,67.13
2019-05-19T05:07:20.552Z,66.77
2019-05-19T05:09:49.031Z,67.80
2019-05-19T05:12:17.410Z,66.77
2019-05-19T05:14:45.848Z,63.93
2019-05-19T05:17:14.258Z,65.70
2019-05-19T05:19:42.699Z,64.90
2019-05-19T05:22:21.676Z,61.63
2019-05-19T05:24:41.274Z,64.30
2019-05-19T05:27:09.711Z,62.20
2019-05-19T05:29:38.145Z,62.20
2019-05-19T05:32:06.563Z,59.90
2019-05-19T05:34:34.968Z,57.97
2019-05-19T05:37:03.414Z,60.17
2019-05-19T05:39:31.833Z,58.17
2019-05-19T05:42:00.273Z,61.20
2019-05-19T05:44:28.688Z,58.17
2019-05-19T05:46:57.135Z,58.47
2019-05-19T05:49:25.546Z,58.40
2019-05-19T05:51:53.984Z,57.40
2019-05-19T05:54:22.402Z,57.00
2019-05-19T05:56:50.932Z,58.53
2019-05-19T05:59:19.334Z,57.70
2019-05-19T06:01:47.779Z,60.47
2019-05-19T06:04:16.262Z,58.10
2019-05-19T06:06:45.889Z,58.33
2019-05-19T06:09:14.393Z,60.20
2019-05-19T06:11:42.835Z,61.13
2019-05-19T06:14:11.248Z,59.97
2019-05-19T06:16:39.686Z,58.10
2019-05-19T06:19:08.107Z,58.47
2019-05-19T06:21:36.546Z,60.77
2019-05-19T06:24:05.028Z,59.93
2019-05-19T06:26:33.477Z,59.03
2019-05-19T06:29:01.894Z,59.20
2019-05-19T06:31:30.330Z,58.27
2019-05-19T06:33:58.743Z,59.20
2019-05-19T06:36:27.173Z,60.53
2019-05-19T06:38:55.587Z,55.80
2019-05-19T06:41:24.027Z,56.00
2019-05-19T06:43:52.437Z,61.60
2019-05-19T06:46:20.877Z,59.50
2019-05-19T06:48:49.297Z,60.67
2019-05-19T06:51:17.727Z,59.47
2019-05-19T06:53:46.142Z,57.87
2019-05-19T06:56:14.579Z,56.60
2019-05-19T06:58:42.985Z,59.37
2019-05-19T07:01:11.403Z,54.47
2019-05-19T07:03:39.851Z,54.90
2019-05-19T07:06:08.262Z,53.60
2019-05-19T07:08:36.705Z,55.83
2019-05-19T07:11:05.179Z,55.50
2019-05-19T07:13:33.635Z,59.03
2019-05-19T07:16:02.053Z,51.80
2019-05-19T07:18:30.567Z,53.20
2019-05-19T07:20:58.977Z,52.83
2019-05-19T07:23:28.791Z,53.30
2019-05-19T07:25:57.572Z,54.60
2019-05-19T07:28:26.014Z,52.67
2019-05-19T07:30:54.431Z,52.37
2019-05-19T07:33:22.871Z,49.83
2019-05-19T07:35:51.308Z,50.57
2019-05-19T07:38:19.726Z,54.60
2019-05-19T07:40:48.213Z,52.57
2019-05-19T07:43:16.723Z,51.90
2019-05-19T07:45:45.149Z,50.63
2019-05-19T07:48:13.589Z,51.10
2019-05-19T07:50:41.996Z,49.77
2019-05-19T07:53:10.445Z,50.80
2019-05-19T07:55:38.886Z,50.33
2019-05-19T07:58:07.296Z,53.17
2019-05-19T08:00:35.747Z,52.20
2019-05-19T08:03:04.255Z,48.90
2019-05-19T08:05:33.138Z,49.70
2019-05-19T08:08:01.544Z,48.83
2019-05-19T08:10:30.106Z,47.47
2019-05-19T08:12:58.499Z,48.67
2019-05-19T08:15:26.939Z,47.90
2019-05-19T08:17:55.366Z,47.30
2019-05-19T08:20:23.883Z,47.37
2019-05-19T08:22:52.272Z,47.10
2019-05-19T08:25:20.715Z,44.97
2019-05-19T08:27:49.119Z,47.50
2019-05-19T08:30:17.635Z,46.97
2019-05-19T08:32:46.101Z,51.97
2019-05-19T08:35:14.605Z,44.80
2019-05-19T08:37:43.016Z,46.53
2019-05-19T08:40:11.509Z,46.20
2019-05-19T08:42:39.912Z,45.67
2019-05-19T08:45:08.787Z,45.37
2019-05-19T08:47:37.190Z,43.60
2019-05-19T08:50:07.467Z,46.17
2019-05-19T08:52:35.877Z,44.87
2019-05-19T08:55:05.250Z,45.27
2019-05-19T08:57:33.735Z,44.57
2019-05-19T09:00:02.209Z,44.20
2019-05-19T09:02:30.667Z,46.63
2019-05-19T09:04:59.105Z,44.73
2019-05-19T09:07:27.515Z,46.03
2019-05-19T09:09:55.968Z,45.77
2019-05-19T09:12:24.457Z,45.20
2019-05-19T09:14:52.859Z,50.43
2019-05-19T09:17:21.293Z,46.33
2019-05-19T09:19:49.707Z,46.60
2019-05-19T09:22:18.136Z,43.50
2019-05-19T09:24:46.622Z,46.63
2019-05-19T09:27:15.053Z,47.63
2019-05-19T09:29:43.483Z,45.67
2019-05-19T09:32:11.927Z,44.10
2019-05-19T09:34:40.348Z,45.67
2019-05-19T09:37:08.778Z,44.70
2019-05-19T09:39:37.186Z,44.03
2019-05-19T09:42:05.689Z,44.57
2019-05-19T09:44:34.091Z,45.53
2019-05-19T09:47:02.529Z,42.77
2019-05-19T09:49:32.588Z,43.70
2019-05-19T09:52:02.246Z,44.30
2019-05-19T09:54:44.236Z,45.27
2019-05-19T09:57:01.121Z,47.33
2019-05-19T09:59:29.867Z,45.60
2019-05-19T10:01:58.298Z,43.17
2019-05-19T10:04:26.774Z,44.20
2019-05-19T10:06:55.279Z,43.67
2019-05-19T10:09:29.860Z,43.17
2019-05-19T10:12:08.980Z,43.40
2019-05-19T10:14:37.363Z,41.80
2019-05-19T10:17:05.791Z,41.67
2019-05-19T10:19:34.196Z,40.57
2019-05-19T10:22:02.626Z,42.00
2019-05-19T10:24:31.098Z,42.60
2019-05-19T10:26:59.533Z,40.60
2019-05-19T10:29:28.009Z,43.47
2019-05-19T10:31:56.444Z,44.50
2019-05-19T10:34:24.851Z,43.47
2019-05-19T10:36:53.259Z,44.37
2019-05-19T10:39:21.693Z,43.40
2019-05-19T10:41:50.170Z,41.50
2019-05-19T10:44:18.600Z,46.33
2019-05-19T10:46:47.010Z,39.87
2019-05-19T10:49:15.446Z,40.37
2019-05-19T10:51:43.850Z,41.97
2019-05-19T10:54:12.281Z,42.17
2019-05-19T10:56:40.685Z,42.40
2019-05-19T10:59:09.124Z,43.03
2019-05-19T11:01:37.533Z,41.50
2019-05-19T11:04:05.970Z,41.03
2019-05-19T11:06:34.376Z,42.20
2019-05-19T11:09:03.051Z,42.50
2019-05-19T11:11:31.459Z,42.60
2019-05-19T11:13:59.964Z,41.50
2019-05-19T11:16:28.436Z,42.67
2019-05-19T11:18:56.865Z,41.30
2019-05-19T11:21:25.274Z,42.30
2019-05-19T11:23:53.700Z,41.07
2019-05-19T11:26:22.100Z,50.67
2019-05-19T11:28:50.540Z,40.90
2019-05-19T11:31:19.020Z,41.33
2019-05-19T11:33:47.459Z,42.97
2019-05-19T11:36:15.866Z,41.50
2019-05-19T11:38:44.302Z,43.10
2019-05-19T11:41:12.718Z,42.10
2019-05-19T11:43:41.220Z,42.33
2019-05-19T11:46:09.696Z,41.00
2019-05-19T11:48:38.169Z,40.10
2019-05-19T11:51:06.575Z,39.50
2019-05-19T11:53:34.981Z,40.70
2019-05-19T11:56:06.574Z,41.47
2019-05-19T11:58:33.572Z,41.70
2019-05-19T12:01:02.005Z,39.80
2019-05-19T12:03:30.409Z,42.73
2019-05-19T12:05:58.845Z,42.30
2019-05-19T12:08:27.322Z,41.27
2019-05-19T12:10:55.747Z,42.27
2019-05-19T12:13:24.150Z,41.63
2019-05-19T12:15:52.669Z,42.40
2019-05-19T12:18:21.079Z,41.87
2019-05-19T12:20:49.521Z,42.53
2019-05-19T12:23:17.922Z,41.70
2019-05-19T12:25:46.357Z,41.03
2019-05-19T12:28:14.764Z,42.77
2019-05-19T12:30:43.200Z,41.33
2019-05-19T12:33:11.782Z,45.57
2019-05-19T12:35:40.213Z,41.97
2019-05-19T12:38:08.614Z,41.00
2019-05-19T12:40:37.048Z,41.27
2019-05-19T12:43:05.452Z,41.17
2019-05-19T12:45:34.022Z,41.43
2019-05-19T12:48:02.859Z,41.23
2019-05-19T12:50:33.243Z,43.30
2019-05-19T12:53:01.675Z,41.40
2019-05-19T12:55:30.069Z,41.90
2019-05-19T12:57:58.574Z,41.87
2019-05-19T13:00:27.056Z,41.13
2019-05-19T13:03:01.479Z,41.87
2019-05-19T13:05:30.133Z,40.87
2019-05-19T13:07:58.557Z,43.57
2019-05-19T13:10:26.966Z,43.67
2019-05-19T13:12:55.395Z,42.40
2019-05-19T13:15:23.912Z,42.73
2019-05-19T13:17:52.926Z,42.87
2019-05-19T13:20:21.423Z,40.60
2019-05-19T13:22:49.851Z,42.07
2019-05-19T13:25:18.280Z,41.60
2019-05-19T13:27:46.707Z,42.73
2019-05-19T13:30:15.278Z,42.93
2019-05-19T13:32:44.182Z,41.97
2019-05-19T13:35:13.026Z,41.07
2019-05-19T13:37:41.457Z,44.80
2019-05-19T13:40:10.212Z,39.77
2019-05-19T13:42:38.663Z,42.03
2019-05-19T13:45:07.396Z,42.30
2019-05-19T13:47:35.846Z,41.67
2019-05-19T13:50:06.516Z,42.60
2019-05-19T13:52:35.022Z,41.67
2019-05-19T13:55:04.564Z,46.27
2019-05-19T13:57:32.988Z,41.80
2019-05-19T14:00:01.389Z,41.60
2019-05-19T14:02:29.809Z,40.27
2019-05-19T14:04:58.227Z,42.37
2019-05-19T14:07:26.634Z,41.13
2019-05-19T14:09:55.084Z,41.90
2019-05-19T14:12:23.556Z,41.90
2019-05-19T14:14:51.989Z,42.70
2019-05-19T14:17:20.391Z,41.77
2019-05-19T14:19:48.818Z,55.00
2019-05-19T14:22:17.217Z,40.70
2019-05-19T14:24:45.647Z,41.37
2019-05-19T14:27:28.428Z,39.10
2019-05-19T14:29:44.205Z,40.77
2019-05-19T14:32:12.621Z,38.80
2019-05-19T14:34:41.101Z,40.80
2019-05-19T14:37:09.538Z,39.80
2019-05-19T14:39:37.964Z,38.90
2019-05-19T14:42:08.008Z,39.40
2019-05-19T14:44:36.438Z,39.47
2019-05-19T14:47:04.854Z,38.63
2019-05-19T14:49:33.379Z,39.83
2019-05-19T14:52:01.795Z,37.87
2019-05-19T14:54:30.259Z,39.57
2019-05-19T14:56:58.633Z,39.57
2019-05-19T14:59:27.067Z,40.37
2019-05-19T15:01:55.469Z,39.47
2019-05-19T15:04:23.920Z,38.27
2019-05-19T15:06:52.327Z,40.40
2019-05-19T15:09:20.723Z,40.40
2019-05-19T15:11:49.161Z,40.03
2019-05-19T15:14:17.575Z,38.33
2019-05-19T15:19:14.316Z,38.70
2019-05-19T15:21:42.743Z,39.70
2019-05-19T15:24:11.152Z,39.03
2019-05-19T15:26:39.586Z,40.50
2019-05-19T15:29:07.995Z,39.03
2019-05-19T15:31:36.426Z,40.03
2019-05-19T15:34:04.902Z,39.93
2019-05-19T15:36:33.344Z,40.20
2019-05-19T15:39:01.804Z,38.93
2019-05-19T15:41:30.330Z,39.73
2019-05-19T15:43:58.758Z,38.90
2019-05-19T15:46:28.973Z,39.60
2019-05-19T15:48:57.377Z,39.90
2019-05-19T15:51:29.164Z,40.73
2019-05-19T15:53:55.941Z,41.50
2019-05-19T15:56:24.400Z,43.20
2019-05-19T15:58:52.780Z,40.93
2019-05-19T16:01:21.226Z,41.30
2019-05-19T16:03:49.632Z,44.10
2019-05-19T16:06:18.126Z,40.97
2019-05-19T16:08:46.531Z,41.40
2019-05-19T16:11:14.960Z,41.77
2019-05-19T16:13:43.443Z,41.83
2019-05-19T16:16:11.847Z,41.83
2019-05-19T16:18:40.285Z,40.03
2019-05-19T16:21:08.687Z,40.00
2019-05-19T16:23:37.144Z,39.37
2019-05-19T16:26:05.614Z,39.87
2019-05-19T16:28:34.042Z,39.40
2019-05-19T16:31:02.446Z,40.27
2019-05-19T16:33:30.878Z,41.60
2019-05-19T16:35:59.305Z,40.90
2019-05-19T16:38:27.733Z,39.30
2019-05-19T16:40:56.146Z,40.50
2019-05-19T16:43:24.576Z,42.17
2019-05-19T16:45:53.069Z,43.60
2019-05-19T16:48:23.376Z,40.47
2019-05-19T16:50:51.663Z,40.30
2019-05-19T16:53:20.227Z,41.80
2019-05-19T16:55:48.770Z,41.90
2019-05-19T16:58:21.320Z,42.90
2019-05-19T17:00:47.299Z,45.90
2019-05-19T17:03:15.817Z,44.07
2019-05-19T17:05:44.384Z,46.17
2019-05-19T17:08:12.826Z,44.77
2019-05-19T17:10:41.229Z,43.67
2019-05-19T17:13:09.800Z,43.70
2019-05-19T17:15:38.338Z,49.90
2019-05-19T17:18:08.305Z,49.03
2019-05-19T17:20:37.354Z,44.73
2019-05-19T17:23:05.790Z,45.80
2019-05-19T17:25:34.203Z,45.50
2019-05-19T17:28:02.638Z,47.77
2019-05-19T17:30:31.046Z,48.20
2019-05-19T17:32:59.494Z,46.93
2019-05-19T17:35:27.926Z,51.80
2019-05-19T17:37:56.407Z,52.37
2019-05-19T17:40:24.843Z,48.70
2019-05-19T17:42:53.256Z,51.00
2019-05-19T17:45:21.834Z,49.30
2019-05-19T17:47:53.193Z,48.87
2019-05-19T17:50:31.687Z,45.83
2019-05-19T17:53:00.097Z,49.67
2019-05-19T17:55:29.557Z,46.60
2019-05-19T17:57:58.814Z,48.40
2019-05-19T18:00:35.898Z,45.07
2019-05-19T18:03:03.445Z,44.67
2019-05-19T18:05:31.899Z,43.97
2019-05-19T18:08:00.303Z,48.53
2019-05-19T18:10:28.743Z,44.77
2019-05-19T18:12:57.224Z,49.23
2019-05-19T18:15:25.653Z,43.40
2019-05-19T18:17:54.069Z,44.90
2019-05-19T18:20:24.023Z,44.87
2019-05-19T18:22:52.707Z,43.07
2019-05-19T18:25:21.150Z,45.53
2019-05-19T18:27:49.548Z,47.30
2019-05-19T18:30:18.057Z,47.00
2019-05-19T18:32:46.544Z,48.10
2019-05-19T18:35:15.381Z,45.87
2019-05-19T18:37:43.877Z,47.77
2019-05-19T18:40:12.727Z,46.83
2019-05-19T18:42:41.207Z,47.30
2019-05-19T18:45:09.877Z,46.80
2019-05-19T18:47:38.662Z,48.57
2019-05-19T18:50:08.205Z,48.77
2019-05-19T18:52:37.012Z,49.67
2019-05-19T18:55:07.754Z,49.17
2019-05-19T18:57:36.404Z,53.83
2019-05-19T19:00:06.780Z,50.17
2019-05-19T19:02:35.483Z,54.63
2019-05-19T19:05:05.603Z,53.67
2019-05-19T19:07:50.555Z,50.70
2019-05-19T19:10:19.050Z,53.80
2019-05-19T19:12:47.924Z,54.17
2019-05-19T19:15:16.412Z,54.77
2019-05-19T19:17:44.854Z,53.23
2019-05-19T19:20:13.664Z,58.10
2019-05-19T19:22:42.282Z,53.97
2019-05-19T19:25:10.695Z,54.10
2019-05-19T19:27:39.273Z,54.60
2019-05-19T19:30:08.176Z,53.40
2019-05-19T19:32:36.965Z,52.40
2019-05-19T19:35:06.989Z,52.30
2019-05-19T19:37:35.698Z,52.17
2019-05-19T19:40:08.490Z,53.07
2019-05-19T19:42:37.178Z,50.90
2019-05-19T19:45:06.034Z,53.83
2019-05-19T19:47:34.543Z,53.00
2019-05-19T19:50:03.292Z,51.77
2019-05-19T19:52:31.805Z,51.57
2019-05-19T19:55:00.491Z,52.20
2019-05-19T19:57:29.233Z,53.43
2019-05-19T19:59:57.636Z,51.07
2019-05-19T20:02:26.326Z,60.60
2019-05-19T20:04:54.865Z,55.20
2019-05-19T20:07:23.728Z,50.37
2019-05-19T20:09:52.424Z,52.37
2019-05-19T20:12:21.034Z,52.73
2019-05-19T20:14:49.886Z,56.40
2019-05-19T20:17:18.370Z,52.70
2019-05-19T20:19:46.880Z,55.80
2019-05-19T20:22:15.381Z,53.30
2019-05-19T20:24:43.875Z,53.80
2019-05-19T20:27:12.287Z,53.70
2019-05-19T20:29:40.725Z,53.60
2019-05-19T20:32:09.140Z,55.73
2019-05-19T20:34:37.576Z,53.73
2019-05-19T20:37:06.014Z,54.00
2019-05-19T20:39:34.449Z,54.60
2019-05-19T20:42:02.865Z,53.70
2019-05-19T20:44:31.304Z,56.00
2019-05-19T20:46:59.719Z,55.17
2019-05-19T20:49:28.161Z,56.67
2019-05-19T20:51:56.568Z,55.40
2019-05-19T20:54:25.012Z,55.27
2019-05-19T20:56:53.874Z,58.13
2019-05-19T20:59:22.308Z,55.00
2019-05-19T21:01:56.554Z,65.40
